createdAt,value
2023-04-26T00:00:45.390Z,70.92
2023-04-26T00:01:45.362Z,71.16
2023-04-26T00:02:45.399Z,71.16
2023-04-26T00:03:45.566Z,71.47
2023-04-26T00:04:45.520Z,71.47
2023-04-26T00:05:45.406Z,71.59
2023-04-26T00:06:45.342Z,72.14
2023-04-26T00:07:45.285Z,72.02
2023-04-26T00:08:45.276Z,71.89
2023-04-26T00:09:45.266Z,72.02
2023-04-26T00:10:45.256Z,72.14
2023-04-26T00:11:45.234Z,72.08
2023-04-26T00:12:45.254Z,72.02
2023-04-26T00:13:45.226Z,71.96
2023-04-26T00:14:45.195Z,72.14
2023-04-26T00:15:45.204Z,72.14
2023-04-26T00:16:45.268Z,72.33
2023-04-26T00:17:45.194Z,72.26
2023-04-26T00:18:45.170Z,72.14
2023-04-26T00:19:45.168Z,72.58
2023-04-26T00:20:45.191Z,72.51
2023-04-26T00:21:45.104Z,72.45
2023-04-26T00:22:45.098Z,72.51
2023-04-26T00:23:45.080Z,72.08
2023-04-26T00:24:45.081Z,72.33
2023-04-26T00:25:45.055Z,72.39
2023-04-26T00:26:45.040Z,72.51
2023-04-26T00:27:45.122Z,72.26
2023-04-26T00:28:45.032Z,72.20
2023-04-26T00:29:45.004Z,71.65
2023-04-26T00:30:45.060Z,70.92
2023-04-26T00:31:45.123Z,70.33
2023-04-26T00:32:45.028Z,70.33
2023-04-26T00:33:44.965Z,70.04
2023-04-26T00:34:44.960Z,70.10
2023-04-26T00:35:44.943Z,69.86
2023-04-26T00:36:44.995Z,70.27
2023-04-26T00:37:44.906Z,69.92
2023-04-26T00:38:44.911Z,70.21
2023-04-26T00:39:44.893Z,70.21
2023-04-26T00:40:44.868Z,69.98
2023-04-26T00:41:44.875Z,70.21
2023-04-26T00:42:44.851Z,69.92
2023-04-26T00:43:44.927Z,69.81
2023-04-26T00:44:44.831Z,69.40
2023-04-26T00:45:44.836Z,69.29
2023-04-26T00:46:44.799Z,69.52
2023-04-26T00:47:44.858Z,69.17
2023-04-26T00:48:44.877Z,68.50
2023-04-26T00:49:44.760Z,68.67
2023-04-26T00:50:44.760Z,68.50
2023-04-26T00:51:44.716Z,68.55
2023-04-26T00:52:44.772Z,68.50
2023-04-26T00:53:44.692Z,68.50
2023-04-26T00:54:44.736Z,68.61
2023-04-26T00:55:44.843Z,68.61
2023-04-26T00:56:44.646Z,68.72
2023-04-26T00:57:44.659Z,68.55
2023-04-26T00:58:44.646Z,68.11
2023-04-26T00:59:44.658Z,67.83
2023-04-26T01:00:44.641Z,67.78
2023-04-26T01:01:44.662Z,67.61
2023-04-26T01:02:44.719Z,67.51
2023-04-26T01:03:44.827Z,67.24
2023-04-26T01:04:44.575Z,67.24
2023-04-26T01:05:44.546Z,66.76
2023-04-26T01:06:44.537Z,66.54
2023-04-26T01:07:44.522Z,65.71
2023-04-26T01:08:44.499Z,65.87
2023-04-26T01:09:44.505Z,65.61
2023-04-26T01:10:44.519Z,65.92
2023-04-26T01:11:44.506Z,66.07
2023-04-26T01:12:44.468Z,65.92
2023-04-26T01:13:44.465Z,65.82
2023-04-26T01:14:44.420Z,65.41
2023-04-26T01:15:44.432Z,65.56
2023-04-26T01:16:44.477Z,65.25
2023-04-26T01:17:44.419Z,65.46
2023-04-26T01:18:44.390Z,65.41
2023-04-26T01:19:44.367Z,65.56
2023-04-26T01:20:44.353Z,65.10
2023-04-26T01:21:44.364Z,65.10
2023-04-26T01:22:44.327Z,65.30
2023-04-26T01:23:44.303Z,65.41
2023-04-26T01:24:44.289Z,65.15
2023-04-26T01:25:44.292Z,65.30
2023-04-26T01:26:44.290Z,64.90
2023-04-26T01:27:44.293Z,65.46
2023-04-26T01:28:44.257Z,64.80
2023-04-26T01:29:44.232Z,65.51
2023-04-26T01:30:44.227Z,65.20
2023-04-26T01:31:44.220Z,65.20
2023-04-26T01:32:44.268Z,65.00
2023-04-26T01:33:44.226Z,64.45
2023-04-26T01:34:44.210Z,64.80
2023-04-26T01:35:44.156Z,64.50
2023-04-26T01:36:44.167Z,64.50
2023-04-26T01:37:44.150Z,64.35
2023-04-26T01:38:44.152Z,64.40
2023-04-26T01:39:44.109Z,64.50
2023-04-26T01:40:44.098Z,64.21
2023-04-26T01:41:44.087Z,64.60
2023-04-26T01:42:44.081Z,64.31
2023-04-26T01:43:44.063Z,64.55
2023-04-26T01:44:44.059Z,64.50
2023-04-26T01:45:44.030Z,64.26
2023-04-26T01:46:44.173Z,64.16
2023-04-26T01:47:44.033Z,64.11
2023-04-26T01:48:43.998Z,63.91
2023-04-26T01:49:43.990Z,63.34
2023-04-26T01:50:44.012Z,63.24
2023-04-26T01:51:43.967Z,63.34
2023-04-26T01:52:43.942Z,63.53
2023-04-26T01:53:43.934Z,63.53
2023-04-26T01:54:43.919Z,63.15
2023-04-26T01:55:43.911Z,63.34
2023-04-26T01:56:43.918Z,63.38
2023-04-26T01:57:43.887Z,63.62
2023-04-26T01:58:43.866Z,63.43
2023-04-26T01:59:43.849Z,63.34
2023-04-26T02:00:43.843Z,63.72
2023-04-26T02:01:43.892Z,64.31
2023-04-26T02:02:43.934Z,64.50
2023-04-26T02:03:43.866Z,64.80
2023-04-26T02:04:43.820Z,65.51
2023-04-26T02:05:43.791Z,65.66
2023-04-26T02:06:43.783Z,65.82
2023-04-26T02:07:43.796Z,65.97
2023-04-26T02:08:43.740Z,65.97
2023-04-26T02:09:43.723Z,66.39
2023-04-26T02:10:43.707Z,66.97
2023-04-26T02:11:43.734Z,67.45
2023-04-26T02:12:43.701Z,67.18
2023-04-26T02:13:43.664Z,67.51
2023-04-26T02:14:43.663Z,68.22
2023-04-26T02:15:43.658Z,69.12
2023-04-26T02:16:43.641Z,70.21
2023-04-26T02:17:43.653Z,71.41
2023-04-26T02:18:43.603Z,72.77
2023-04-26T02:19:43.598Z,74.05
2023-04-26T02:20:43.610Z,75.58
2023-04-26T02:21:43.567Z,77.46
2023-04-26T02:22:43.563Z,79.59
2023-04-26T02:23:43.649Z,81.44
2023-04-26T02:24:43.539Z,82.88
2023-04-26T02:25:43.524Z,85.32
2023-04-26T02:26:43.496Z,86.73
2023-04-26T02:27:43.498Z,87.09
2023-04-26T02:28:43.502Z,87.82
2023-04-26T02:29:44.755Z,87.54
2023-04-26T02:30:43.487Z,89.31
2023-04-26T02:31:43.513Z,89.50
2023-04-26T02:32:43.455Z,90.46
2023-04-26T02:33:43.438Z,91.05
2023-04-26T02:34:43.416Z,92.05
2023-04-26T02:35:43.398Z,92.45
2023-04-26T02:36:43.372Z,92.86
2023-04-26T02:37:43.363Z,94.11
2023-04-26T02:38:43.350Z,94.21
2023-04-26T02:39:43.362Z,95.50
2023-04-26T02:40:43.330Z,94.35
2023-04-26T02:41:43.309Z,94.19
2023-04-26T02:42:43.296Z,94.66
2023-04-26T02:43:43.293Z,94.35
2023-04-26T02:44:43.278Z,94.61
2023-04-26T02:45:43.294Z,94.66
2023-04-26T02:46:43.292Z,95.96
2023-04-26T02:47:43.251Z,97.80
2023-04-26T02:48:43.223Z,99.84
2023-04-26T02:49:43.211Z,101.04
2023-04-26T02:50:43.195Z,102.33
2023-04-26T02:51:43.202Z,102.89
2023-04-26T02:52:43.183Z,103.21
2023-04-26T02:53:43.164Z,103.91
2023-04-26T02:54:43.147Z,103.59
2023-04-26T02:55:43.139Z,103.02
2023-04-26T02:56:43.150Z,102.14
2023-04-26T02:57:43.128Z,100.97
2023-04-26T02:58:43.105Z,101.04
2023-04-26T02:59:43.083Z,100.43
2023-04-26T03:00:43.096Z,99.48
2023-04-26T03:01:43.069Z,99.72
2023-04-26T03:02:43.178Z,99.84
2023-04-26T03:03:43.120Z,99.72
2023-04-26T03:04:43.040Z,99.60
2023-04-26T03:05:43.012Z,98.72
2023-04-26T03:06:43.011Z,97.86
2023-04-26T03:07:42.984Z,97.97
2023-04-26T03:08:42.993Z,97.58
2023-04-26T03:09:42.973Z,97.63
2023-04-26T03:10:42.953Z,97.35
2023-04-26T03:11:42.927Z,96.62
2023-04-26T03:12:42.933Z,97.18
2023-04-26T03:13:42.911Z,97.69
2023-04-26T03:14:42.906Z,98.15
2023-04-26T03:15:42.929Z,98.66
2023-04-26T03:16:42.913Z,99.01
2023-04-26T03:17:42.858Z,98.78
2023-04-26T03:18:42.834Z,98.55
2023-04-26T03:19:42.833Z,98.55
2023-04-26T03:20:42.842Z,98.38
2023-04-26T03:21:42.811Z,98.32
2023-04-26T03:22:42.804Z,97.92
2023-04-26T03:23:42.795Z,97.35
2023-04-26T03:24:42.773Z,97.24
2023-04-26T03:25:42.762Z,97.41
2023-04-26T03:26:42.776Z,96.79
2023-04-26T03:27:42.730Z,96.29
2023-04-26T03:28:42.746Z,95.96
2023-04-26T03:29:44.117Z,95.15
2023-04-26T03:30:42.715Z,95.96
2023-04-26T03:31:42.735Z,95.91
2023-04-26T03:32:42.717Z,94.82
2023-04-26T03:33:42.679Z,94.35
2023-04-26T03:34:42.649Z,95.39
2023-04-26T03:35:42.645Z,94.53
2023-04-26T03:36:42.626Z,93.38
2023-04-26T03:37:42.609Z,92.45
2023-04-26T03:38:42.620Z,91.45
2023-04-26T03:39:42.585Z,90.85
2023-04-26T03:40:42.590Z,90.56
2023-04-26T03:41:42.559Z,90.17
2023-04-26T03:42:42.580Z,89.98
2023-04-26T03:43:42.539Z,89.69
2023-04-26T03:44:42.592Z,89.31
2023-04-26T03:45:42.566Z,88.93
2023-04-26T03:46:42.498Z,88.93
2023-04-26T03:47:42.499Z,89.12
2023-04-26T03:48:42.477Z,88.56
2023-04-26T03:49:42.459Z,87.27
2023-04-26T03:50:42.467Z,86.29
2023-04-26T03:51:42.452Z,85.84
2023-04-26T03:52:42.436Z,84.46
2023-04-26T03:53:42.432Z,83.62
2023-04-26T03:54:42.406Z,83.13
2023-04-26T03:55:42.392Z,82.23
2023-04-26T03:56:42.399Z,81.67
2023-04-26T03:57:42.355Z,81.28
2023-04-26T03:58:42.358Z,80.50
2023-04-26T03:59:42.336Z,80.27
2023-04-26T04:00:42.320Z,80.12
2023-04-26T04:01:42.343Z,79.36
2023-04-26T04:02:42.566Z,78.91
2023-04-26T04:03:42.622Z,78.18
2023-04-26T04:04:42.594Z,78.11
2023-04-26T04:05:42.347Z,77.67
2023-04-26T04:06:42.252Z,76.89
2023-04-26T04:07:42.261Z,76.06
2023-04-26T04:08:42.221Z,74.51
2023-04-26T04:09:42.228Z,74.05
2023-04-26T04:10:42.215Z,72.64
2023-04-26T04:11:42.208Z,72.96
2023-04-26T04:12:42.187Z,72.14
2023-04-26T04:13:42.193Z,71.71
2023-04-26T04:14:42.164Z,71.10
2023-04-26T04:15:42.137Z,70.45
2023-04-26T04:16:42.136Z,69.86
2023-04-26T04:17:42.110Z,69.63
2023-04-26T04:18:42.103Z,69.17
2023-04-26T04:19:42.109Z,68.22
2023-04-26T04:20:42.086Z,67.34
2023-04-26T04:21:42.121Z,67.34
2023-04-26T04:22:42.045Z,66.70
2023-04-26T04:23:42.035Z,67.02
2023-04-26T04:24:42.019Z,67.40
2023-04-26T04:25:42.026Z,67.29
2023-04-26T04:26:41.995Z,66.60
2023-04-26T04:27:41.982Z,66.28
2023-04-26T04:28:41.972Z,65.30
2023-04-26T04:29:41.971Z,64.50
2023-04-26T04:30:41.941Z,64.01
2023-04-26T04:31:42.098Z,63.72
2023-04-26T04:32:41.966Z,62.96
2023-04-26T04:33:41.915Z,62.26
2023-04-26T04:34:41.916Z,61.12
2023-04-26T04:35:41.894Z,60.90
2023-04-26T04:36:41.885Z,58.33
2023-04-26T04:37:41.888Z,57.96
2023-04-26T04:38:41.849Z,58.29
2023-04-26T04:39:41.842Z,58.41
2023-04-26T04:40:41.814Z,58.33
2023-04-26T04:41:41.814Z,57.96
2023-04-26T04:42:41.816Z,58.49
2023-04-26T04:43:41.803Z,59.69
2023-04-26T04:44:41.773Z,60.16
2023-04-26T04:45:41.766Z,60.68
2023-04-26T04:46:41.775Z,61.39
2023-04-26T04:47:41.806Z,62.17
2023-04-26T04:48:41.746Z,63.10
2023-04-26T04:49:41.719Z,63.34
2023-04-26T04:50:41.706Z,63.72
2023-04-26T04:51:41.698Z,63.72
2023-04-26T04:52:41.684Z,64.31
2023-04-26T04:53:41.649Z,64.40
2023-04-26T04:54:41.670Z,65.10
2023-04-26T04:55:41.634Z,65.51
2023-04-26T04:56:41.629Z,66.23
2023-04-26T04:57:42.894Z,66.76
2023-04-26T04:58:41.589Z,67.08
2023-04-26T04:59:41.583Z,67.61
2023-04-26T05:00:41.589Z,68.16
2023-04-26T05:01:41.567Z,68.44
2023-04-26T05:02:41.765Z,67.72
2023-04-26T05:03:41.623Z,67.13
2023-04-26T05:04:41.726Z,66.07
2023-04-26T05:05:41.534Z,65.30
2023-04-26T05:06:41.539Z,64.45
2023-04-26T05:07:41.492Z,63.34
2023-04-26T05:08:41.476Z,62.63
2023-04-26T05:09:41.466Z,62.12
2023-04-26T05:10:41.442Z,62.30
2023-04-26T05:11:41.438Z,61.94
2023-04-26T05:12:41.435Z,61.39
2023-04-26T05:13:41.407Z,61.04
2023-04-26T05:14:41.397Z,60.68
2023-04-26T05:15:41.377Z,60.33
2023-04-26T05:16:41.405Z,60.16
2023-04-26T05:17:41.406Z,59.82
2023-04-26T05:18:41.371Z,60.08
2023-04-26T05:19:41.369Z,60.21
2023-04-26T05:20:41.336Z,60.21
2023-04-26T05:21:41.327Z,60.77
2023-04-26T05:22:41.351Z,61.53
2023-04-26T05:23:41.289Z,62.35
2023-04-26T05:24:41.287Z,63.29
2023-04-26T05:25:41.256Z,63.87
2023-04-26T05:26:41.253Z,64.80
2023-04-26T05:27:41.242Z,65.66
2023-04-26T05:28:41.224Z,66.28
2023-04-26T05:29:41.209Z,67.56
2023-04-26T05:30:41.222Z,69.29
2023-04-26T05:31:41.219Z,71.29
2023-04-26T05:32:41.214Z,72.77
2023-04-26T05:33:41.171Z,72.64
2023-04-26T05:34:41.169Z,72.26
2023-04-26T05:35:41.154Z,71.83
2023-04-26T05:36:41.150Z,71.77
2023-04-26T05:37:41.116Z,73.02
2023-04-26T05:38:41.118Z,73.53
2023-04-26T05:39:41.105Z,74.51
2023-04-26T05:40:41.064Z,75.17
2023-04-26T05:41:41.148Z,76.40
2023-04-26T05:42:41.064Z,78.18
2023-04-26T05:43:41.037Z,79.89
2023-04-26T05:44:41.085Z,81.83
2023-04-26T05:45:41.036Z,83.13
2023-04-26T05:46:40.993Z,84.38
2023-04-26T05:47:41.016Z,85.41
2023-04-26T05:48:41.001Z,87.00
2023-04-26T05:49:40.977Z,88.84
2023-04-26T05:50:40.947Z,89.69
2023-04-26T05:51:40.932Z,90.27
2023-04-26T05:52:40.945Z,91.05
2023-04-26T05:53:40.979Z,91.05
2023-04-26T05:54:40.922Z,92.05
2023-04-26T05:55:40.868Z,92.66
2023-04-26T05:56:40.856Z,93.90
2023-04-26T05:57:40.902Z,93.90
2023-04-26T05:58:40.843Z,94.32
2023-04-26T05:59:40.841Z,93.87
2023-04-26T06:00:40.821Z,95.25
2023-04-26T06:01:40.793Z,95.42
2023-04-26T06:02:40.961Z,97.86
2023-04-26T06:03:40.944Z,99.01
2023-04-26T06:04:40.920Z,101.16
2023-04-26T06:05:40.884Z,102.02
2023-04-26T06:06:40.805Z,103.84
2023-04-26T06:07:40.727Z,110.25
2023-04-26T06:08:40.724Z,115.79
2023-04-26T06:09:40.693Z,121.83
2023-04-26T06:10:40.707Z,126.98
2023-04-26T06:11:40.664Z,134.18
2023-04-26T06:12:40.684Z,139.87
2023-04-26T06:13:40.665Z,147.35
2023-04-26T06:14:40.662Z,170.51
2023-04-26T06:15:40.619Z,187.66
2023-04-26T06:16:43.541Z,188.52
2023-04-26T06:17:40.603Z,195.20
2023-04-26T06:18:40.597Z,199.55
2023-04-26T06:19:40.562Z,208.36
2023-04-26T06:20:40.562Z,233.04
2023-04-26T06:21:40.544Z,245.86
2023-04-26T06:22:40.553Z,251.28
2023-04-26T06:23:40.522Z,261.00
2023-04-26T06:24:40.499Z,277.20
2023-04-26T06:25:40.489Z,295.27
2023-04-26T06:26:40.484Z,308.21
2023-04-26T06:27:40.470Z,316.47
2023-04-26T06:28:42.230Z,309.37
2023-04-26T06:29:40.444Z,326.48
2023-04-26T06:30:40.458Z,340.95
2023-04-26T06:31:40.576Z,364.65
2023-04-26T06:32:40.541Z,376.70
2023-04-26T06:33:40.410Z,394.96
2023-04-26T06:34:40.406Z,386.55
2023-04-26T06:35:40.390Z,396.59
2023-04-26T06:36:40.350Z,397.77
2023-04-26T06:37:40.337Z,399.90
2023-04-26T06:38:40.331Z,419.11
2023-04-26T06:39:40.362Z,456.40
2023-04-26T06:40:40.324Z,496.18
2023-04-26T06:41:40.280Z,507.04
2023-04-26T06:42:40.449Z,500.99
2023-04-26T06:43:40.314Z,493.99
2023-04-26T06:44:40.265Z,509.73
2023-04-26T06:45:41.512Z,510.89
2023-04-26T06:46:40.376Z,497.28
2023-04-26T06:47:40.241Z,499.87
2023-04-26T06:48:40.205Z,495.08
2023-04-26T06:49:40.196Z,527.34
2023-04-26T06:50:40.169Z,534.47
2023-04-26T06:51:40.175Z,540.49
2023-04-26T06:52:40.154Z,549.33
2023-04-26T06:53:40.133Z,605.25
2023-04-26T06:54:53.628Z,662.55
2023-04-26T06:55:40.133Z,713.95
2023-04-26T06:56:40.106Z,748.05
2023-04-26T06:57:40.113Z,684.84
2023-04-26T06:58:40.097Z,684.14
2023-04-26T06:59:40.076Z,682.06
2023-04-26T07:00:40.060Z,666.50
2023-04-26T07:01:40.093Z,686.94
2023-04-26T07:02:40.126Z,765.07
2023-04-26T07:03:40.418Z,739.90
2023-04-26T07:04:40.202Z,717.00
2023-04-26T07:05:40.275Z,699.09
2023-04-26T07:06:39.970Z,736.65
2023-04-26T07:07:39.968Z,773.43
2023-04-26T07:08:39.946Z,829.73
2023-04-26T07:09:39.956Z,862.73
2023-04-26T07:10:39.924Z,868.30
2023-04-26T07:11:39.903Z,848.04
2023-04-26T07:12:39.942Z,811.71
2023-04-26T07:13:39.919Z,761.61
2023-04-26T07:14:39.875Z,773.43
2023-04-26T07:15:39.875Z,793.98
2023-04-26T07:16:39.859Z,778.81
2023-04-26T07:17:39.871Z,770.33
2023-04-26T07:18:39.810Z,748.89
2023-04-26T07:19:39.808Z,758.60
2023-04-26T07:20:39.809Z,797.27
2023-04-26T07:21:39.784Z,810.24
2023-04-26T07:22:39.758Z,808.29
2023-04-26T07:23:39.750Z,823.13
2023-04-26T07:24:39.734Z,846.44
2023-04-26T07:25:39.730Z,832.82
2023-04-26T07:26:39.739Z,803.46
2023-04-26T07:27:39.696Z,813.18
2023-04-26T07:28:39.700Z,809.75
2023-04-26T07:29:39.678Z,789.78
2023-04-26T07:30:39.650Z,759.89
2023-04-26T07:31:39.678Z,770.33
2023-04-26T07:32:39.702Z,756.04
2023-04-26T07:33:39.695Z,764.64
2023-04-26T07:34:39.607Z,731.84
2023-04-26T07:35:39.598Z,769.89
2023-04-26T07:36:39.638Z,858.33
2023-04-26T07:37:39.601Z,906.33
2023-04-26T07:38:39.558Z,913.72
2023-04-26T07:39:39.560Z,974.64
2023-04-26T07:40:39.558Z,1014.33
2023-04-26T07:41:41.087Z,1020.48
2023-04-26T07:42:39.549Z,1078.59
2023-04-26T07:43:39.537Z,1140.80
2023-04-26T07:44:39.482Z,1122.70
2023-04-26T07:45:39.497Z,1172.62
2023-04-26T07:46:39.469Z,1261.73
2023-04-26T07:47:39.482Z,1317.33
2023-04-26T07:48:39.468Z,1312.19
2023-04-26T07:49:39.409Z,1290.79
2023-04-26T07:50:39.402Z,1283.40
2023-04-26T07:51:39.393Z,1283.40
2023-04-26T07:52:39.392Z,1246.52
2023-04-26T07:53:39.375Z,1265.29
2023-04-26T07:54:39.385Z,1271.27
2023-04-26T07:55:39.361Z,1340.98
2023-04-26T07:56:39.363Z,1342.31
2023-04-26T07:57:39.353Z,1353.12
2023-04-26T07:58:39.505Z,1371.05
2023-04-26T07:59:39.278Z,1430.85
2023-04-26T08:00:39.296Z,1409.85
2023-04-26T08:01:39.326Z,1379.49
2023-04-26T08:02:45.130Z,1396.68
2023-04-26T08:03:39.412Z,1430.85
2023-04-26T08:04:39.646Z,1458.79
2023-04-26T08:05:39.590Z,1498.61
2023-04-26T08:06:39.240Z,1532.76
2023-04-26T08:07:39.186Z,1535.39
2023-04-26T08:08:39.186Z,1576.79
2023-04-26T08:09:39.173Z,1522.35
2023-04-26T08:10:39.184Z,1596.44
2023-04-26T08:11:39.195Z,1634.26
2023-04-26T08:12:39.198Z,1614.65
2023-04-26T08:13:40.060Z,1626.36
2023-04-26T08:14:39.099Z,1590.77
2023-04-26T08:15:39.123Z,1504.47
2023-04-26T08:16:39.111Z,1473.17
2023-04-26T08:17:39.234Z,1468.34
2023-04-26T08:18:39.047Z,1398.13
2023-04-26T08:19:39.039Z,1303.29
2023-04-26T08:20:39.026Z,1326.43
2023-04-26T08:21:39.003Z,1339.64
2023-04-26T08:22:39.019Z,1303.29
2023-04-26T08:23:39.004Z,1245.37
2023-04-26T08:24:38.997Z,1195.56
2023-04-26T08:25:38.956Z,1167.53
2023-04-26T08:26:39.003Z,1139.83
2023-04-26T08:27:38.936Z,1116.18
2023-04-26T08:28:38.917Z,1118.97
2023-04-26T08:29:38.940Z,1146.63
2023-04-26T08:30:38.918Z,1186.07
2023-04-26T08:31:38.934Z,1200.89
2023-04-26T08:32:38.892Z,1297.01
2023-04-26T08:33:38.923Z,1414.30
2023-04-26T08:34:38.891Z,1508.69
2023-04-26T08:35:38.827Z,1553.12
2023-04-26T08:36:38.839Z,1611.74
2023-04-26T08:37:38.813Z,1744.49
2023-04-26T08:38:38.801Z,1911.87
2023-04-26T08:39:38.791Z,1983.78
2023-04-26T08:40:38.795Z,1932.47
2023-04-26T08:41:38.762Z,1881.12
2023-04-26T08:42:38.759Z,1913.23
2023-04-26T08:43:38.741Z,1982.31
2023-04-26T08:44:38.752Z,2083.66
2023-04-26T08:45:38.708Z,2155.45
2023-04-26T08:46:38.751Z,2190.55
2023-04-26T08:47:38.717Z,2258.61
2023-04-26T08:48:38.695Z,2339.13
2023-04-26T08:49:38.678Z,2502.32
2023-04-26T08:50:38.696Z,2331.02
2023-04-26T08:51:38.670Z,2349.34
2023-04-26T08:52:38.627Z,2406.08
2023-04-26T08:53:38.639Z,2365.88
2023-04-26T08:54:38.611Z,2463.37
2023-04-26T08:55:38.643Z,2357.58
2023-04-26T08:56:38.616Z,2281.59
2023-04-26T08:57:38.567Z,2228.67
2023-04-26T08:58:38.583Z,2223.14
2023-04-26T08:59:38.563Z,2236.08
2023-04-26T09:00:38.578Z,2221.30
2023-04-26T09:01:38.607Z,2236.08
2023-04-26T09:02:38.611Z,2258.61
2023-04-26T09:03:38.608Z,2157.18
2023-04-26T09:04:38.816Z,2001.49
2023-04-26T09:05:38.465Z,1933.86
2023-04-26T09:06:38.477Z,1967.81
2023-04-26T09:07:38.450Z,2048.74
2023-04-26T09:08:38.456Z,1992.59
2023-04-26T09:09:38.437Z,2013.47
2023-04-26T09:10:38.404Z,2078.82
2023-04-26T09:11:38.379Z,2124.80
2023-04-26T09:12:38.382Z,2101.56
2023-04-26T09:13:38.386Z,2091.76
2023-04-26T09:14:38.358Z,2176.38
2023-04-26T09:15:38.448Z,2345.25
2023-04-26T09:16:38.362Z,2467.89
2023-04-26T09:17:38.366Z,2511.67
2023-04-26T09:18:38.298Z,2557.03
2023-04-26T09:19:38.321Z,2576.63
2023-04-26T09:20:38.271Z,2606.59
2023-04-26T09:21:38.267Z,2711.69
2023-04-26T09:22:38.246Z,2717.17
2023-04-26T09:23:38.266Z,2796.26
2023-04-26T09:24:38.224Z,2690.00
2023-04-26T09:25:38.264Z,2637.25
2023-04-26T09:26:38.208Z,2728.19
2023-04-26T09:27:38.218Z,2671.30
2023-04-26T09:28:38.176Z,2596.52
2023-04-26T09:29:38.180Z,2391.11
2023-04-26T09:30:38.179Z,2367.96
2023-04-26T09:31:38.192Z,2495.36
2023-04-26T09:32:38.146Z,2744.90
2023-04-26T09:33:38.154Z,3022.47
2023-04-26T09:34:38.098Z,3102.65
2023-04-26T09:35:38.104Z,2911.25
2023-04-26T09:36:38.100Z,3017.39
2023-04-26T09:37:47.311Z,3115.23
2023-04-26T09:38:38.053Z,3060.29
2023-04-26T09:39:38.068Z,3062.04
2023-04-26T09:40:38.042Z,3288.51
2023-04-26T09:41:38.040Z,3426.75
2023-04-26T09:42:38.015Z,3567.64
2023-04-26T09:43:37.998Z,3741.31
2023-04-26T09:44:37.970Z,3788.73
2023-04-26T09:45:37.973Z,4085.04
2023-04-26T09:46:37.999Z,4075.76
2023-04-26T09:47:38.068Z,4209.70
2023-04-26T09:48:37.934Z,4167.31
2023-04-26T09:49:37.922Z,4190.03
2023-04-26T09:50:37.909Z,4151.23
2023-04-26T09:51:37.942Z,4229.56
2023-04-26T09:52:37.891Z,4424.34
2023-04-26T09:53:37.930Z,4349.23
2023-04-26T09:54:37.909Z,4582.62
2023-04-26T09:55:37.866Z,4629.95
2023-04-26T09:56:37.872Z,4536.26
2023-04-26T09:57:37.850Z,4686.41
2023-04-26T09:58:37.902Z,4777.98
2023-04-26T09:59:37.846Z,4769.50
2023-04-26T10:00:37.941Z,4662.04
2023-04-26T10:01:38.052Z,4877.61
2023-04-26T10:02:37.805Z,4976.87
2023-04-26T10:03:38.031Z,4773.73
2023-04-26T10:04:37.834Z,4468.44
2023-04-26T10:05:37.770Z,4236.22
2023-04-26T10:06:37.772Z,4088.15
2023-04-26T10:07:37.736Z,4144.84
2023-04-26T10:08:37.727Z,4475.87
2023-04-26T10:09:37.728Z,4873.19
2023-04-26T10:10:37.736Z,4641.93
2023-04-26T10:11:38.929Z,4446.28
2023-04-26T10:12:37.687Z,4621.99
2023-04-26T10:13:37.670Z,4547.76
2023-04-26T10:14:37.659Z,4645.94
2023-04-26T10:15:37.675Z,4698.69
2023-04-26T10:16:37.659Z,4424.34
2023-04-26T10:17:37.744Z,4222.92
2023-04-26T10:18:37.618Z,4563.19
2023-04-26T10:19:37.613Z,4944.85
2023-04-26T10:20:37.580Z,5153.26
2023-04-26T10:21:37.585Z,5284.87
2023-04-26T10:22:37.585Z,5501.02
2023-04-26T10:23:37.559Z,5693.12
2023-04-26T10:24:37.562Z,5873.36
2023-04-26T10:25:37.524Z,6173.26
2023-04-26T10:26:37.528Z,6462.46
2023-04-26T10:27:37.521Z,6314.55
2023-04-26T10:28:37.610Z,6385.76
2023-04-26T10:29:37.498Z,5977.78
2023-04-26T10:30:37.525Z,6099.77
2023-04-26T10:31:37.622Z,6370.63
2023-04-26T10:32:37.474Z,6687.38
2023-04-26T10:33:37.529Z,6513.32
2023-04-26T10:34:37.442Z,6458.58
2023-04-26T10:35:37.427Z,6155.61
2023-04-26T10:36:37.458Z,5892.66
2023-04-26T10:37:37.416Z,6237.68
2023-04-26T10:38:37.402Z,6205.31
2023-04-26T10:39:37.410Z,5925.11
2023-04-26T10:40:37.381Z,5809.94
2023-04-26T10:41:37.354Z,5828.82
2023-04-26T10:42:38.123Z,5912.09
2023-04-26T10:43:37.353Z,5699.15
2023-04-26T10:44:37.314Z,5803.67
2023-04-26T10:45:37.420Z,6099.77
2023-04-26T10:46:37.357Z,5645.33
2023-04-26T10:47:37.498Z,5342.60
2023-04-26T10:48:37.272Z,4944.85
2023-04-26T10:49:37.264Z,4735.92
2023-04-26T10:50:37.244Z,4409.84
2023-04-26T10:51:37.243Z,4116.30
2023-04-26T10:52:37.218Z,4078.85
2023-04-26T10:53:37.206Z,3892.91
2023-04-26T10:54:37.221Z,3829.18
2023-04-26T10:55:37.209Z,3927.01
2023-04-26T10:56:37.184Z,3904.21
2023-04-26T10:57:37.171Z,3921.28
2023-04-26T10:58:37.142Z,4014.93
2023-04-26T10:59:51.406Z,4132.10
2023-04-26T11:00:37.151Z,4151.23
2023-04-26T11:01:37.152Z,4206.41
2023-04-26T11:02:37.236Z,4370.43
2023-04-26T11:03:37.351Z,4388.25
2023-04-26T11:04:37.117Z,4399.02
2023-04-26T11:05:37.065Z,4324.76
2023-04-26T11:06:37.065Z,4157.65
2023-04-26T11:07:37.072Z,4177.02
2023-04-26T11:08:37.036Z,4180.26
2023-04-26T11:09:37.136Z,4395.42
2023-04-26T11:10:37.030Z,4543.92
2023-04-26T11:11:36.978Z,4521.01
2023-04-26T11:12:36.969Z,4803.57
2023-04-26T11:13:36.971Z,5284.87
2023-04-26T11:14:36.955Z,5274.51
2023-04-26T11:15:36.984Z,5264.19
2023-04-26T11:16:37.046Z,5347.91
2023-04-26T11:17:36.964Z,5203.10
2023-04-26T11:18:36.899Z,4981.48
2023-04-26T11:19:36.921Z,4859.98
2023-04-26T11:20:36.874Z,4935.78
2023-04-26T11:21:36.884Z,5380.00
2023-04-26T11:22:36.873Z,5809.94
2023-04-26T11:23:36.842Z,5860.57
2023-04-26T11:24:36.944Z,5489.80
2023-04-26T11:25:36.817Z,5938.19
2023-04-26T11:26:36.819Z,6537.06
2023-04-26T11:27:36.827Z,7111.70
2023-04-26T11:28:36.767Z,7231.18
2023-04-26T11:29:36.820Z,6750.31
2023-04-26T11:30:36.873Z,6810.13
2023-04-26T11:31:36.808Z,6906.29
2023-04-26T11:32:36.844Z,6679.08
2023-04-26T11:33:36.965Z,6924.07
2023-04-26T11:34:36.741Z,7250.67
2023-04-26T11:35:36.803Z,7674.75
2023-04-26T11:36:36.716Z,7642.04
2023-04-26T11:37:37.504Z,7535.01
2023-04-26T11:38:36.700Z,7390.11
2023-04-26T11:39:36.693Z,7446.37
2023-04-26T11:40:36.677Z,7988.12
2023-04-26T11:41:36.663Z,7540.29
2023-04-26T11:42:36.648Z,7270.27
2023-04-26T11:43:36.808Z,7202.14
2023-04-26T11:44:36.611Z,7159.02
2023-04-26T11:45:36.622Z,7451.52
2023-04-26T11:46:36.627Z,7472.22
2023-04-26T11:47:36.636Z,8090.23
2023-04-26T11:48:36.574Z,8151.52
2023-04-26T11:49:36.558Z,8065.97
2023-04-26T11:50:36.547Z,8347.56
2023-04-26T11:51:36.551Z,7994.06
2023-04-26T11:52:36.514Z,7344.71
2023-04-26T11:53:36.503Z,7774.57
2023-04-26T11:54:36.520Z,8328.17
2023-04-26T11:55:36.474Z,8341.08
2023-04-26T11:56:36.518Z,8419.41
2023-04-26T11:57:36.491Z,7994.06
2023-04-26T11:58:36.599Z,9455.18
2023-04-26T11:59:36.464Z,11302.52
2023-04-26T12:00:36.446Z,11876.38
2023-04-26T12:01:36.482Z,12643.95
2023-04-26T12:02:36.569Z,12439.31
2023-04-26T12:03:36.553Z,12599.53
2023-04-26T12:04:36.489Z,11982.18
2023-04-26T12:05:36.629Z,11811.20
2023-04-26T12:06:36.364Z,11982.18
2023-04-26T12:07:36.382Z,11557.47
2023-04-26T12:08:36.366Z,11824.18
2023-04-26T12:09:36.346Z,12468.13
2023-04-26T12:10:36.318Z,11837.18
2023-04-26T12:11:36.302Z,11955.56
2023-04-26T12:12:36.315Z,11902.66
2023-04-26T12:13:36.292Z,12269.10
2023-04-26T12:14:36.325Z,12339.45
2023-04-26T12:15:36.261Z,12117.12
2023-04-26T12:16:36.265Z,11995.54
2023-04-26T12:17:36.360Z,11995.54
2023-04-26T12:18:36.232Z,11243.47
2023-04-26T12:19:36.234Z,11326.32
2023-04-26T12:20:36.239Z,11695.65
2023-04-26T12:21:36.193Z,11837.18
2023-04-26T12:22:36.174Z,12311.21
2023-04-26T12:23:36.168Z,12468.13
2023-04-26T12:24:36.186Z,11824.18
2023-04-26T12:25:36.186Z,12158.19
2023-04-26T12:26:36.153Z,12439.31
2023-04-26T12:27:36.139Z,12870.81
2023-04-26T12:28:36.107Z,12917.17
2023-04-26T12:29:36.103Z,12917.17